sensor_id;sensor_type;location;lat;lon;timestamp;pressure;altitude;pressure_sealevel;temperature;humidity
31357;BME280;60001;48.404;11.738;2022-11-20T00:00:42;95672.94;;;6.44;90.99
31357;BME280;60001;48.404;11.738;2022-11-20T00:02:14;95679.22;;;6.43;91.44
31357;BME280;60001;48.404;11.738;2022-11-20T00:03:46;95686.59;;;6.46;91.10
31357;BME280;60001;48.404;11.738;2022-11-20T00:05:18;95673.28;;;6.47;91.19
31357;BME280;60001;48.404;11.738;2022-11-20T00:06:52;95680.81;;;6.44;90.81
31357;BME280;60001;48.404;11.738;2022-11-20T00:08:24;95672.66;;;6.40;91.06
31357;BME280;60001;48.404;11.738;2022-11-20T00:09:56;95682.88;;;6.42;90.87
31357;BME280;60001;48.404;11.738;2022-11-20T00:11:28;95685.50;;;6.42;90.84
31357;BME280;60001;48.404;11.738;2022-11-20T00:13:00;95683.94;;;6.41;90.79
31357;BME280;60001;48.404;11.738;2022-11-20T00:14:33;95692.34;;;6.43;90.86
31357;BME280;60001;48.404;11.738;2022-11-20T00:16:06;95678.44;;;6.42;90.83
31357;BME280;60001;48.404;11.738;2022-11-20T00:17:38;95692.34;;;6.43;90.98
31357;BME280;60001;48.404;11.738;2022-11-20T00:19:10;95693.38;;;6.42;90.73
31357;BME280;60001;48.404;11.738;2022-11-20T00:20:42;95693.91;;;6.44;91.18
31357;BME280;60001;48.404;11.738;2022-11-20T00:22:16;95686.84;;;6.44;90.97
31357;BME280;60001;48.404;11.738;2022-11-20T00:23:48;95691.06;;;6.45;90.84
31357;BME280;60001;48.404;11.738;2022-11-20T00:25:20;95690.00;;;6.46;90.71
31357;BME280;60001;48.404;11.738;2022-11-20T00:26:52;95693.47;;;6.47;90.59
31357;BME280;60001;48.404;11.738;2022-11-20T00:28:24;95687.19;;;6.48;91.01
31357;BME280;60001;48.404;11.738;2022-11-20T00:29:55;95686.13;;;6.49;91.10
31357;BME280;60001;48.404;11.738;2022-11-20T00:31:28;95689.22;;;6.46;90.54
31357;BME280;60001;48.404;11.738;2022-11-20T00:32:59;95692.63;;;6.46;90.96
31357;BME280;60001;48.404;11.738;2022-11-20T00:34:30;95700.84;;;6.50;90.84
31357;BME280;60001;48.404;11.738;2022-11-20T00:36:04;95685.09;;;6.50;90.98
31357;BME280;60001;48.404;11.738;2022-11-20T00:37:37;95696.38;;;6.50;90.93
31357;BME280;60001;48.404;11.738;2022-11-20T00:39:09;95699.00;;;6.50;90.86
31357;BME280;60001;48.404;11.738;2022-11-20T00:40:39;95694.78;;;6.49;90.80
31357;BME280;60001;48.404;11.738;2022-11-20T00:42:11;95696.13;;;6.52;90.87
31357;BME280;60001;48.404;11.738;2022-11-20T00:43:42;95702.19;;;6.52;90.93
31357;BME280;60001;48.404;11.738;2022-11-20T00:45:14;95694.31;;;6.52;90.91
31357;BME280;60001;48.404;11.738;2022-11-20T00:46:46;95701.38;;;6.52;90.74
31357;BME280;60001;48.404;11.738;2022-11-20T00:48:18;95702.19;;;6.52;90.97
31357;BME280;60001;48.404;11.738;2022-11-20T00:49:50;95699.56;;;6.52;90.73
31357;BME280;60001;48.404;11.738;2022-11-20T00:51:24;95691.69;;;6.52;90.82
31357;BME280;60001;48.404;11.738;2022-11-20T00:52:57;95695.09;;;6.53;91.25
31357;BME280;60001;48.404;11.738;2022-11-20T00:54:29;95695.66;;;6.55;90.94
31357;BME280;60001;48.404;11.738;2022-11-20T00:56:02;95693.50;;;6.52;90.59
31357;BME280;60001;48.404;11.738;2022-11-20T00:57:35;95706.63;;;6.52;90.76
31357;BME280;60001;48.404;11.738;2022-11-20T00:59:09;95703.94;;;6.47;91.09
31357;BME280;60001;48.404;11.738;2022-11-20T01:00:41;95705.53;;;6.48;90.74
31357;BME280;60001;48.404;11.738;2022-11-20T01:02:12;95696.63;;;6.49;91.04
31357;BME280;60001;48.404;11.738;2022-11-20T01:03:47;95709.19;;;6.47;90.98
31357;BME280;60001;48.404;11.738;2022-11-20T01:05:19;95702.13;;;6.47;90.74
31357;BME280;60001;48.404;11.738;2022-11-20T01:06:51;95707.28;;;6.42;90.71
31357;BME280;60001;48.404;11.738;2022-11-20T01:08:24;95709.41;;;6.45;90.80
31357;BME280;60001;48.404;11.738;2022-11-20T01:09:56;95709.81;;;6.37;91.40
31357;BME280;60001;48.404;11.738;2022-11-20T01:11:30;95711.72;;;6.42;91.25
31357;BME280;60001;48.404;11.738;2022-11-20T01:13:02;95711.50;;;6.43;90.93
31357;BME280;60001;48.404;11.738;2022-11-20T01:14:51;95725.16;;;6.45;91.07
31357;BME280;60001;48.404;11.738;2022-11-20T01:16:26;95722.84;;;6.49;91.17
31357;BME280;60001;48.404;11.738;2022-11-20T01:17:57;95716.56;;;6.50;91.22
31357;BME280;60001;48.404;11.738;2022-11-20T01:19:28;95719.75;;;6.52;91.40
31357;BME280;60001;48.404;11.738;2022-11-20T01:21:02;95722.13;;;6.53;91.09
31357;BME280;60001;48.404;11.738;2022-11-20T01:22:33;95724.75;;;6.53;91.27
31357;BME280;60001;48.404;11.738;2022-11-20T01:24:10;95730.56;;;6.55;91.10
31357;BME280;60001;48.404;11.738;2022-11-20T01:25:42;95731.34;;;6.56;91.30
31357;BME280;60001;48.404;11.738;2022-11-20T01:27:14;95726.91;;;6.56;90.97
31357;BME280;60001;48.404;11.738;2022-11-20T01:28:46;95725.84;;;6.57;90.96
31357;BME280;60001;48.404;11.738;2022-11-20T01:30:18;95728.97;;;6.54;91.19
31357;BME280;60001;48.404;11.738;2022-11-20T01:31:50;95731.34;;;6.56;91.06
31357;BME280;60001;48.404;11.738;2022-11-20T01:33:23;95726.91;;;6.56;90.87
31357;BME280;60001;48.404;11.738;2022-11-20T01:34:54;95731.34;;;6.56;90.87
31357;BME280;60001;48.404;11.738;2022-11-20T01:36:28;95732.84;;;6.52;90.85
31357;BME280;60001;48.404;11.738;2022-11-20T01:37:59;95725.22;;;6.50;90.65
31357;BME280;60001;48.404;11.738;2022-11-20T01:39:32;95732.38;;;6.55;91.05
31357;BME280;60001;48.404;11.738;2022-11-20T01:41:05;95732.38;;;6.55;90.92
31357;BME280;60001;48.404;11.738;2022-11-20T01:42:36;95736.06;;;6.54;90.62
31357;BME280;60001;48.404;11.738;2022-11-20T01:44:48;95736.06;;;6.54;90.73
31357;BME280;60001;48.404;11.738;2022-11-20T01:46:20;95735.22;;;6.53;90.78
31357;BME280;60001;48.404;11.738;2022-11-20T01:47:52;95727.06;;;6.50;90.71
31357;BME280;60001;48.404;11.738;2022-11-20T01:49:36;95733.44;;;6.54;90.85
31357;BME280;60001;48.404;11.738;2022-11-20T01:51:15;95736.06;;;6.54;91.13
31357;BME280;60001;48.404;11.738;2022-11-20T01:52:54;95730.81;;;6.54;91.10
31357;BME280;60001;48.404;11.738;2022-11-20T01:54:36;95727.56;;;6.47;90.81
31357;BME280;60001;48.404;11.738;2022-11-20T01:56:12;95733.19;;;6.55;90.94
31357;BME280;60001;48.404;11.738;2022-11-20T01:57:47;95737.38;;;6.56;90.70
31357;BME280;60001;48.404;11.738;2022-11-20T01:59:23;95727.94;;;6.55;90.54
31357;BME280;60001;48.404;11.738;2022-11-20T02:00:56;95736.59;;;6.56;90.61
31357;BME280;60001;48.404;11.738;2022-11-20T02:02:28;95736.59;;;6.56;90.16
31357;BME280;60001;48.404;11.738;2022-11-20T02:04:01;95731.59;;;6.54;90.23
31357;BME280;60001;48.404;11.738;2022-11-20T02:05:40;95738.69;;;6.54;90.50
31357;BME280;60001;48.404;11.738;2022-11-20T02:07:13;95733.66;;;6.52;90.17
31357;BME280;60001;48.404;11.738;2022-11-20T02:08:44;95731.59;;;6.54;90.51
31357;BME280;60001;48.404;11.738;2022-11-20T02:10:18;95736.84;;;6.54;90.41
31357;BME280;60001;48.404;11.738;2022-11-20T02:11:51;95734.22;;;6.54;90.05
31357;BME280;60001;48.404;11.738;2022-11-20T02:13:23;95732.84;;;6.52;90.53
31357;BME280;60001;48.404;11.738;2022-11-20T02:15:15;95739.69;;;6.53;90.19
31357;BME280;60001;48.404;11.738;2022-11-20T02:16:47;95737.06;;;6.53;90.17
31357;BME280;60001;48.404;11.738;2022-11-20T02:18:21;95734.13;;;6.49;89.94
31357;BME280;60001;48.404;11.738;2022-11-20T02:19:53;95735.97;;;6.49;89.89
31357;BME280;60001;48.404;11.738;2022-11-20T02:21:34;95732.78;;;6.47;89.94
31357;BME280;60001;48.404;11.738;2022-11-20T02:23:12;95735.19;;;6.48;89.97
31357;BME280;60001;48.404;11.738;2022-11-20T02:24:51;95734.38;;;6.48;89.80
31357;BME280;60001;48.404;11.738;2022-11-20T02:26:25;95737.22;;;6.46;89.90
31357;BME280;60001;48.404;11.738;2022-11-20T02:27:57;95737.22;;;6.46;89.97
31357;BME280;60001;48.404;11.738;2022-11-20T02:29:34;95735.63;;;6.45;89.91
31357;BME280;60001;48.404;11.738;2022-11-20T02:31:07;95742.16;;;6.43;89.54
31357;BME280;60001;48.404;11.738;2022-11-20T02:32:39;95737.97;;;6.42;89.73
31357;BME280;60001;48.404;11.738;2022-11-20T02:34:11;95737.38;;;6.40;89.82
31357;BME280;60001;48.404;11.738;2022-11-20T02:35:45;95745.25;;;6.40;89.72
31357;BME280;60001;48.404;11.738;2022-11-20T02:37:18;95729.75;;;6.38;89.91
31357;BME280;60001;48.404;11.738;2022-11-20T02:38:50;95737.63;;;6.38;89.53
31357;BME280;60001;48.404;11.738;2022-11-20T02:40:24;95731.34;;;6.39;89.84
31357;BME280;60001;48.404;11.738;2022-11-20T02:41:56;95733.16;;;6.39;90.08
31357;BME280;60001;48.404;11.738;2022-11-20T02:43:28;95731.34;;;6.39;89.99
31357;BME280;60001;48.404;11.738;2022-11-20T02:44:59;95730.00;;;6.37;90.09
31357;BME280;60001;48.404;11.738;2022-11-20T02:46:31;95726.84;;;6.35;89.73
31357;BME280;60001;48.404;11.738;2022-11-20T02:48:02;95723.41;;;6.34;89.80
31357;BME280;60001;48.404;11.738;2022-11-20T02:49:34;95721.75;;;6.28;89.38
31357;BME280;60001;48.404;11.738;2022-11-20T02:51:06;95725.72;;;6.30;89.72
31357;BME280;60001;48.404;11.738;2022-11-20T02:52:37;95719.13;;;6.28;89.47
31357;BME280;60001;48.404;11.738;2022-11-20T02:54:08;95721.50;;;6.29;89.51
31357;BME280;60001;48.404;11.738;2022-11-20T02:55:42;95726.19;;;6.27;89.67
31357;BME280;60001;48.404;11.738;2022-11-20T02:57:13;95728.81;;;6.27;89.74
31357;BME280;60001;48.404;11.738;2022-11-20T02:58:44;95724.03;;;6.24;89.25
31357;BME280;60001;48.404;11.738;2022-11-20T03:00:16;95722.19;;;6.25;89.06
31357;BME280;60001;48.404;11.738;2022-11-20T03:01:48;95720.88;;;6.22;88.92
31357;BME280;60001;48.404;11.738;2022-11-20T03:03:20;95716.66;;;6.21;88.96
31357;BME280;60001;48.404;11.738;2022-11-20T03:04:50;95728.19;;;6.20;88.96
31357;BME280;60001;48.404;11.738;2022-11-20T03:06:22;95724.53;;;6.21;88.85
31357;BME280;60001;48.404;11.738;2022-11-20T03:07:54;95721.91;;;6.21;89.19
31357;BME280;60001;48.404;11.738;2022-11-20T03:09:26;95715.88;;;6.21;89.26
31357;BME280;60001;48.404;11.738;2022-11-20T03:11:04;95718.72;;;6.19;89.05
31357;BME280;60001;48.404;11.738;2022-11-20T03:12:35;95715.28;;;6.19;89.03
31357;BME280;60001;48.404;11.738;2022-11-20T03:14:07;95722.34;;;6.18;88.87
31357;BME280;60001;48.404;11.738;2022-11-20T03:15:39;95720.78;;;6.17;89.12
31357;BME280;60001;48.404;11.738;2022-11-20T03:17:10;95731.09;;;6.07;88.76
31357;BME280;60001;48.404;11.738;2022-11-20T03:18:43;95723.00;;;6.09;89.04
31357;BME280;60001;48.404;11.738;2022-11-20T03:20:15;95726.75;;;6.13;89.31
31357;BME280;60001;48.404;11.738;2022-11-20T03:21:47;95726.50;;;6.14;88.99
31357;BME280;60001;48.404;11.738;2022-11-20T03:23:19;95727.06;;;6.16;89.13
31357;BME280;60001;48.404;11.738;2022-11-20T03:24:50;95722.59;;;6.17;89.06
31357;BME280;60001;48.404;11.738;2022-11-20T03:26:25;95724.44;;;6.16;89.02
31357;BME280;60001;48.404;11.738;2022-11-20T03:27:58;95728.09;;;6.15;88.93
31357;BME280;60001;48.404;11.738;2022-11-20T03:29:28;95730.47;;;6.17;89.16
31357;BME280;60001;48.404;11.738;2022-11-20T03:31:05;95728.09;;;6.15;89.28
31357;BME280;60001;48.404;11.738;2022-11-20T03:32:37;95732.28;;;6.16;88.75
31357;BME280;60001;48.404;11.738;2022-11-20T03:34:11;95723.63;;;6.16;88.92
31357;BME280;60001;48.404;11.738;2022-11-20T03:35:42;95727.53;;;6.13;89.00
31357;BME280;60001;48.404;11.738;2022-11-20T03:37:14;95719.69;;;6.13;88.88
31357;BME280;60001;48.404;11.738;2022-11-20T03:38:46;95720.94;;;6.11;88.79
31357;BME280;60001;48.404;11.738;2022-11-20T03:40:19;95728.00;;;6.10;88.84
31357;BME280;60001;48.404;11.738;2022-11-20T03:41:51;95728.25;;;6.09;88.70
31357;BME280;60001;48.404;11.738;2022-11-20T03:43:23;95727.44;;;6.08;89.13
31357;BME280;60001;48.404;11.738;2022-11-20T03:44:54;95732.69;;;6.08;89.18
31357;BME280;60001;48.404;11.738;2022-11-20T03:46:27;95732.44;;;6.10;88.98
31357;BME280;60001;48.404;11.738;2022-11-20T03:47:59;95727.44;;;6.08;89.08
31357;BME280;60001;48.404;11.738;2022-11-20T03:49:30;95731.41;;;6.11;89.00
31357;BME280;60001;48.404;11.738;2022-11-20T03:51:10;95732.22;;;6.11;89.06
31357;BME280;60001;48.404;11.738;2022-11-20T03:52:42;95723.34;;;6.12;88.85
31357;BME280;60001;48.404;11.738;2022-11-20T03:54:14;95727.53;;;6.13;89.02
31357;BME280;60001;48.404;11.738;2022-11-20T03:55:50;95728.09;;;6.15;88.83
31357;BME280;60001;48.404;11.738;2022-11-20T03:57:23;95721.25;;;6.14;88.75
31357;BME280;60001;48.404;11.738;2022-11-20T03:58:55;95728.88;;;6.16;88.57
31357;BME280;60001;48.404;11.738;2022-11-20T04:00:27;95724.97;;;6.18;89.03
31357;BME280;60001;48.404;11.738;2022-11-20T04:01:59;95724.19;;;6.18;88.62
31357;BME280;60001;48.404;11.738;2022-11-20T04:03:31;95727.31;;;6.15;88.49
31357;BME280;60001;48.404;11.738;2022-11-20T04:05:02;95730.97;;;6.14;88.61
31357;BME280;60001;48.404;11.738;2022-11-20T04:06:35;95728.34;;;6.14;88.58
31357;BME280;60001;48.404;11.738;2022-11-20T04:08:07;95731.75;;;6.14;88.42
31357;BME280;60001;48.404;11.738;2022-11-20T04:09:39;95728.09;;;6.15;88.26
31357;BME280;60001;48.404;11.738;2022-11-20T04:11:12;95735.97;;;6.15;88.76
31357;BME280;60001;48.404;11.738;2022-11-20T04:12:46;95734.38;;;6.14;88.65
31357;BME280;60001;48.404;11.738;2022-11-20T04:14:18;95736.75;;;6.16;88.28
31357;BME280;60001;48.404;11.738;2022-11-20T04:15:50;95728.88;;;6.16;88.51
31357;BME280;60001;48.404;11.738;2022-11-20T04:17:21;95734.91;;;6.16;88.22
31357;BME280;60001;48.404;11.738;2022-11-20T04:18:54;95723.34;;;6.12;88.55
31357;BME280;60001;48.404;11.738;2022-11-20T04:20:28;95727.06;;;6.16;88.25
31357;BME280;60001;48.404;11.738;2022-11-20T04:22:00;95728.34;;;6.14;88.59
31357;BME280;60001;48.404;11.738;2022-11-20T04:23:32;95737.00;;;6.14;88.39
31357;BME280;60001;48.404;11.738;2022-11-20T04:25:04;95728.09;;;6.15;88.32
31357;BME280;60001;48.404;11.738;2022-11-20T04:26:37;95730.72;;;6.15;87.99
31357;BME280;60001;48.404;11.738;2022-11-20T04:28:10;95724.69;;;6.15;87.98
31357;BME280;60001;48.404;11.738;2022-11-20T04:29:42;95726.50;;;6.14;88.12
31357;BME280;60001;48.404;11.738;2022-11-20T04:31:16;95720.22;;;6.15;88.06
31357;BME280;60001;48.404;11.738;2022-11-20T04:32:48;95713.06;;;6.11;88.33
31357;BME280;60001;48.404;11.738;2022-11-20T04:34:19;95723.88;;;6.14;88.03
31357;BME280;60001;48.404;11.738;2022-11-20T04:35:51;95714.66;;;6.12;88.02
31357;BME280;60001;48.404;11.738;2022-11-20T04:37:22;95718.41;;;6.16;88.08
31357;BME280;60001;48.404;11.738;2022-11-20T04:38:55;95724.44;;;6.16;87.83
31357;BME280;60001;48.404;11.738;2022-11-20T04:40:28;95722.06;;;6.15;88.07
31357;BME280;60001;48.404;11.738;2022-11-20T04:42:00;95718.41;;;6.16;88.04
31357;BME280;60001;48.404;11.738;2022-11-20T04:44:05;95723.63;;;6.16;87.80
31357;BME280;60001;48.404;11.738;2022-11-20T04:45:37;95727.31;;;6.15;87.83
31357;BME280;60001;48.404;11.738;2022-11-20T04:47:08;95724.44;;;6.16;87.74
31357;BME280;60001;48.404;11.738;2022-11-20T04:48:40;95731.75;;;6.14;87.81
31357;BME280;60001;48.404;11.738;2022-11-20T04:50:12;95729.69;;;6.16;87.92
31357;BME280;60001;48.404;11.738;2022-11-20T04:51:44;95729.69;;;6.16;87.89
31357;BME280;60001;48.404;11.738;2022-11-20T04:53:38;95730.47;;;6.17;87.96
31357;BME280;60001;48.404;11.738;2022-11-20T04:55:10;95735.16;;;6.15;87.61
31357;BME280;60001;48.404;11.738;2022-11-20T04:56:41;95731.75;;;6.14;87.93
31357;BME280;60001;48.404;11.738;2022-11-20T04:58:14;95729.13;;;6.14;87.74
31357;BME280;60001;48.404;11.738;2022-11-20T04:59:46;95733.81;;;6.12;87.56
31357;BME280;60001;48.404;11.738;2022-11-20T05:01:20;95737.44;;;6.11;87.51
31357;BME280;60001;48.404;11.738;2022-11-20T05:02:52;95729.03;;;6.09;87.29
31357;BME280;60001;48.404;11.738;2022-11-20T05:04:26;95728.25;;;6.09;87.24
31357;BME280;60001;48.404;11.738;2022-11-20T05:06:00;95729.97;;;6.03;86.80
31357;BME280;60001;48.404;11.738;2022-11-20T05:07:32;95728.72;;;6.06;87.24
31357;BME280;60001;48.404;11.738;2022-11-20T05:09:04;95727.69;;;6.07;87.14
31357;BME280;60001;48.404;11.738;2022-11-20T05:10:35;95730.31;;;6.07;86.78
31357;BME280;60001;48.404;11.738;2022-11-20T05:12:07;95739.22;;;6.06;87.08
31357;BME280;60001;48.404;11.738;2022-11-20T05:13:39;95740.47;;;6.03;86.56
31357;BME280;60001;48.404;11.738;2022-11-20T05:15:13;95715.31;;;5.90;86.50
31357;BME280;60001;48.404;11.738;2022-11-20T05:16:44;95734.44;;;6.02;86.68
31357;BME280;60001;48.404;11.738;2022-11-20T05:18:16;95724.72;;;6.03;86.48
31357;BME280;60001;48.404;11.738;2022-11-20T05:19:48;95732.84;;;6.01;86.55
31357;BME280;60001;48.404;11.738;2022-11-20T05:21:21;95738.09;;;6.01;86.19
31357;BME280;60001;48.404;11.738;2022-11-20T05:22:51;95738.88;;;6.02;86.47
31357;BME280;60001;48.404;11.738;2022-11-20T05:24:23;95736.81;;;6.04;86.33
31357;BME280;60001;48.404;11.738;2022-11-20T05:25:56;95741.75;;;6.00;86.20
31357;BME280;60001;48.404;11.738;2022-11-20T05:27:27;95736.81;;;6.04;86.30
31357;BME280;60001;48.404;11.738;2022-11-20T05:28:59;95738.63;;;6.03;85.65
31357;BME280;60001;48.404;11.738;2022-11-20T05:30:32;95736.00;;;6.03;86.21
31357;BME280;60001;48.404;11.738;2022-11-20T05:32:04;95737.03;;;6.02;85.62
31357;BME280;60001;48.404;11.738;2022-11-20T05:33:40;95737.28;;;6.01;85.25
31357;BME280;60001;48.404;11.738;2022-11-20T05:35:11;95742.53;;;6.01;85.76
31357;BME280;60001;48.404;11.738;2022-11-20T05:36:43;95732.59;;;6.03;85.67
31357;BME280;60001;48.404;11.738;2022-11-20T05:38:14;95734.91;;;5.99;84.76
31357;BME280;60001;48.404;11.738;2022-11-20T05:39:46;95735.69;;;6.00;85.08
31357;BME280;60001;48.404;11.738;2022-11-20T05:41:19;95736.25;;;6.02;85.03
31357;BME280;60001;48.404;11.738;2022-11-20T05:42:51;95734.44;;;6.02;85.25
31357;BME280;60001;48.404;11.738;2022-11-20T05:44:23;95733.38;;;6.03;85.20
31357;BME280;60001;48.404;11.738;2022-11-20T05:45:56;95730.22;;;6.01;85.29
31357;BME280;60001;48.404;11.738;2022-11-20T05:47:32;95734.44;;;6.02;85.22
31357;BME280;60001;48.404;11.738;2022-11-20T05:49:04;95733.63;;;6.02;84.95
31357;BME280;60001;48.404;11.738;2022-11-20T05:50:36;95726.81;;;6.01;84.99
31357;BME280;60001;48.404;11.738;2022-11-20T05:52:06;95726.56;;;6.02;85.32
31357;BME280;60001;48.404;11.738;2022-11-20T05:53:38;95736.25;;;6.02;85.27
31357;BME280;60001;48.404;11.738;2022-11-20T05:55:12;95739.66;;;6.02;85.33
31357;BME280;60001;48.404;11.738;2022-11-20T05:56:43;95739.91;;;6.01;85.15
31357;BME280;60001;48.404;11.738;2022-11-20T05:58:15;95732.03;;;6.01;85.30
31357;BME280;60001;48.404;11.738;2022-11-20T05:59:46;95739.91;;;6.01;85.34
31357;BME280;60001;48.404;11.738;2022-11-20T06:01:21;95735.94;;;5.98;85.02
31357;BME280;60001;48.404;11.738;2022-11-20T06:02:53;95739.81;;;5.96;85.00
31357;BME280;60001;48.404;11.738;2022-11-20T06:04:25;95739.25;;;5.94;85.02
31357;BME280;60001;48.404;11.738;2022-11-20T06:06:01;95742.91;;;5.93;85.17
31357;BME280;60001;48.404;11.738;2022-11-20T06:07:33;95738.59;;;5.87;84.92
31357;BME280;60001;48.404;11.738;2022-11-20T06:09:05;95746.19;;;5.88;84.80
31357;BME280;60001;48.404;11.738;2022-11-20T06:10:37;95744.84;;;5.86;84.87
31357;BME280;60001;48.404;11.738;2022-11-20T06:12:09;95750.56;;;5.83;85.04
31357;BME280;60001;48.404;11.738;2022-11-20T06:13:41;95753.41;;;5.81;85.21
31357;BME280;60001;48.404;11.738;2022-11-20T06:15:13;95748.66;;;5.78;85.22
31357;BME280;60001;48.404;11.738;2022-11-20T06:16:46;95755.13;;;5.75;84.73
31357;BME280;60001;48.404;11.738;2022-11-20T06:18:18;95755.63;;;5.72;84.95
31357;BME280;60001;48.404;11.738;2022-11-20T06:19:49;95760.31;;;5.70;84.69
31357;BME280;60001;48.404;11.738;2022-11-20T06:21:22;95761.78;;;5.66;84.50
31357;BME280;60001;48.404;11.738;2022-11-20T06:22:54;95763.06;;;5.64;84.63
31357;BME280;60001;48.404;11.738;2022-11-20T06:24:26;95767.72;;;5.62;84.83
31357;BME280;60001;48.404;11.738;2022-11-20T06:26:01;95764.53;;;5.60;84.64
31357;BME280;60001;48.404;11.738;2022-11-20T06:27:33;95774.47;;;5.58;85.18
31357;BME280;60001;48.404;11.738;2022-11-20T06:29:04;95773.88;;;5.56;85.30
31357;BME280;60001;48.404;11.738;2022-11-20T06:30:36;95758.31;;;5.49;85.52
31357;BME280;60001;48.404;11.738;2022-11-20T06:32:08;95776.50;;;5.56;85.83
31357;BME280;60001;48.404;11.738;2022-11-20T06:33:40;95764.19;;;5.56;86.01
31357;BME280;60001;48.404;11.738;2022-11-20T06:35:13;95771.84;;;5.58;86.14
31357;BME280;60001;48.404;11.738;2022-11-20T06:36:44;95772.41;;;5.60;86.16
31357;BME280;60001;48.404;11.738;2022-11-20T06:38:16;95771.38;;;5.61;86.34
31357;BME280;60001;48.404;11.738;2022-11-20T06:39:48;95774.78;;;5.61;86.06
31357;BME280;60001;48.404;11.738;2022-11-20T06:41:21;95764.78;;;5.58;86.00
31357;BME280;60001;48.404;11.738;2022-11-20T06:42:53;95775.91;;;5.65;86.36
31357;BME280;60001;48.404;11.738;2022-11-20T06:44:24;95769.53;;;5.61;85.87
31357;BME280;60001;48.404;11.738;2022-11-20T06:45:58;95772.75;;;5.63;86.14
31357;BME280;60001;48.404;11.738;2022-11-20T06:47:31;95774.09;;;5.66;86.70
31357;BME280;60001;48.404;11.738;2022-11-20T06:49:03;95782.50;;;5.68;86.77
31357;BME280;60001;48.404;11.738;2022-11-20T06:50:36;95779.09;;;5.67;86.60
31357;BME280;60001;48.404;11.738;2022-11-20T06:52:07;95782.84;;;5.71;86.39
31357;BME280;60001;48.404;11.738;2022-11-20T06:53:39;95783.88;;;5.70;86.63
31357;BME280;60001;48.404;11.738;2022-11-20T06:55:11;95776.16;;;5.64;86.21
31357;BME280;60001;48.404;11.738;2022-11-20T06:56:46;95790.34;;;5.68;86.21
31357;BME280;60001;48.404;11.738;2022-11-20T06:58:18;95789.00;;;5.65;86.07
31357;BME280;60001;48.404;11.738;2022-11-20T06:59:50;95787.63;;;5.63;86.05
31357;BME280;60001;48.404;11.738;2022-11-20T07:01:22;95790.50;;;5.61;86.05
31357;BME280;60001;48.404;11.738;2022-11-20T07:02:55;95788.34;;;5.58;85.84
31357;BME280;60001;48.404;11.738;2022-11-20T07:04:27;95784.34;;;5.56;85.82
31357;BME280;60001;48.404;11.738;2022-11-20T07:06:00;95794.84;;;5.56;86.20
31357;BME280;60001;48.404;11.738;2022-11-20T07:07:33;95790.97;;;5.58;86.04
31357;BME280;60001;48.404;11.738;2022-11-20T07:09:03;95789.69;;;5.61;86.39
31357;BME280;60001;48.404;11.738;2022-11-20T07:10:35;95794.50;;;5.64;86.59
31357;BME280;60001;48.404;11.738;2022-11-20T07:12:08;95795.03;;;5.66;86.59
31357;BME280;60001;48.404;11.738;2022-11-20T07:13:40;95788.53;;;5.68;86.52
31357;BME280;60001;48.404;11.738;2022-11-20T07:15:11;95795.69;;;5.73;86.55
31357;BME280;60001;48.404;11.738;2022-11-20T07:16:43;95795.47;;;5.74;86.57
31357;BME280;60001;48.404;11.738;2022-11-20T07:18:16;95793.41;;;5.76;86.31
31357;BME280;60001;48.404;11.738;2022-11-20T07:19:48;95792.41;;;5.77;86.33
31357;BME280;60001;48.404;11.738;2022-11-20T07:21:20;95797.72;;;5.83;86.75
31357;BME280;60001;48.404;11.738;2022-11-20T07:22:53;95799.09;;;5.85;86.68
31357;BME280;60001;48.404;11.738;2022-11-20T07:24:26;95803.06;;;5.88;86.49
31357;BME280;60001;48.404;11.738;2022-11-20T07:25:58;95805.44;;;5.89;86.43
31357;BME280;60001;48.404;11.738;2022-11-20T07:27:33;95795.56;;;5.91;86.45
31357;BME280;60001;48.404;11.738;2022-11-20T07:29:05;95794.28;;;5.94;86.71
31357;BME280;60001;48.404;11.738;2022-11-20T07:30:37;95801.22;;;6.00;87.20
31357;BME280;60001;48.404;11.738;2022-11-20T07:32:08;95806.31;;;6.07;87.27
31357;BME280;60001;48.404;11.738;2022-11-20T07:33:41;95804.25;;;6.09;87.40
31357;BME280;60001;48.404;11.738;2022-11-20T07:35:13;95803.56;;;6.13;87.03
31357;BME280;60001;48.404;11.738;2022-11-20T07:36:45;95797.59;;;6.18;87.24
31357;BME280;60001;48.404;11.738;2022-11-20T07:38:16;95796.88;;;6.22;87.40
31357;BME280;60001;48.404;11.738;2022-11-20T07:39:48;95797.00;;;6.27;87.44
31357;BME280;60001;48.404;11.738;2022-11-20T07:41:20;95801.50;;;6.32;87.33
31357;BME280;60001;48.404;11.738;2022-11-20T07:42:53;95797.63;;;6.35;87.21
31357;BME280;60001;48.404;11.738;2022-11-20T07:44:25;95804.22;;;6.37;87.25
31357;BME280;60001;48.404;11.738;2022-11-20T07:45:58;95798.19;;;6.37;86.70
31357;BME280;60001;48.404;11.738;2022-11-20T07:47:35;95805.00;;;6.38;86.09
31357;BME280;60001;48.404;11.738;2022-11-20T07:49:08;95812.09;;;6.37;85.89
31357;BME280;60001;48.404;11.738;2022-11-20T07:50:39;95803.44;;;6.37;86.02
31357;BME280;60001;48.404;11.738;2022-11-20T07:52:11;95814.47;;;6.39;85.92
31357;BME280;60001;48.404;11.738;2022-11-20T07:53:43;95811.03;;;6.38;85.96
31357;BME280;60001;48.404;11.738;2022-11-20T07:55:15;95810.81;;;6.40;85.92
31357;BME280;60001;48.404;11.738;2022-11-20T07:56:47;95806.38;;;6.40;85.75
31357;BME280;60001;48.404;11.738;2022-11-20T07:58:19;95804.56;;;6.41;85.40
31357;BME280;60001;48.404;11.738;2022-11-20T07:59:50;95805.00;;;6.38;85.03
31357;BME280;60001;48.404;11.738;2022-11-20T08:01:21;95802.72;;;6.41;85.32
31357;BME280;60001;48.404;11.738;2022-11-20T08:02:56;95790.31;;;6.37;85.22
31357;BME280;60001;48.404;11.738;2022-11-20T08:04:29;95806.69;;;6.44;85.03
31357;BME280;60001;48.404;11.738;2022-11-20T08:06:01;95807.72;;;6.43;84.25
31357;BME280;60001;48.404;11.738;2022-11-20T08:07:36;95795.91;;;6.40;84.37
31357;BME280;60001;48.404;11.738;2022-11-20T08:09:08;95811.38;;;6.42;83.25
31357;BME280;60001;48.404;11.738;2022-11-20T08:10:39;95808.53;;;6.43;83.77
31357;BME280;60001;48.404;11.738;2022-11-20T08:12:17;95807.03;;;6.47;83.74